createdAt,value
2023-01-19T00:00:43.418Z,7.23
2023-01-19T00:04:06.006Z,7.13
2023-01-19T00:07:27.557Z,7.12
2023-01-19T00:10:52.926Z,7.16
2023-01-19T00:14:14.481Z,7.12
2023-01-19T00:17:42.428Z,7.15
2023-01-19T00:21:04.148Z,7.12
2023-01-19T00:24:25.820Z,7.07
2023-01-19T00:27:49.443Z,6.96
2023-01-19T00:31:16.017Z,6.85
2023-01-19T00:34:42.649Z,6.79
2023-01-19T00:38:09.532Z,6.92
2023-01-19T00:41:49.587Z,6.92
2023-01-19T00:45:13.920Z,6.96
2023-01-19T00:48:35.574Z,7.15
2023-01-19T00:51:57.407Z,7.05
2023-01-19T00:55:19.128Z,6.99
2023-01-19T00:58:43.417Z,7.05
2023-01-19T01:02:05.190Z,7.02
2023-01-19T01:05:27.303Z,6.86
2023-01-19T01:08:48.915Z,6.84
2023-01-19T01:12:10.525Z,6.74
2023-01-19T01:15:34.716Z,6.82
2023-01-19T01:18:58.704Z,6.81
2023-01-19T01:22:20.292Z,6.77
2023-01-19T01:25:44.138Z,6.65
2023-01-19T01:29:06.435Z,6.68
2023-01-19T01:32:28.011Z,6.75
2023-01-19T01:35:50.264Z,6.91
2023-01-19T01:39:11.892Z,6.81
2023-01-19T01:42:34.625Z,6.81
2023-01-19T01:45:56.370Z,6.81
2023-01-19T01:49:18.221Z,6.77
2023-01-19T01:53:06.145Z,6.82
2023-01-19T01:56:52.550Z,6.88
2023-01-19T02:00:17.042Z,6.81
2023-01-19T02:03:41.191Z,6.85
2023-01-19T02:07:21.691Z,6.81
2023-01-19T02:11:02.555Z,6.78
2023-01-19T02:14:24.231Z,6.93
2023-01-19T02:17:46.862Z,6.85
2023-01-19T02:21:20.814Z,6.54
2023-01-19T02:24:45.317Z,6.67
2023-01-19T02:28:09.507Z,6.40
2023-01-19T02:31:33.539Z,6.37
2023-01-19T02:34:55.464Z,6.37
2023-01-19T02:38:18.982Z,6.41
2023-01-19T02:41:46.351Z,6.59
2023-01-19T02:45:09.931Z,6.36
2023-01-19T02:48:31.657Z,6.24
2023-01-19T02:51:53.437Z,6.36
2023-01-19T02:55:27.661Z,6.19
2023-01-19T02:59:16.400Z,6.02
2023-01-19T03:03:00.250Z,5.89
2023-01-19T03:06:34.337Z,6.06
2023-01-19T03:10:20.323Z,6.13
2023-01-19T03:13:57.052Z,5.92
2023-01-19T03:17:19.324Z,5.96
2023-01-19T03:20:44.083Z,5.82
2023-01-19T03:24:08.326Z,5.71
2023-01-19T03:27:40.696Z,5.86
2023-01-19T03:31:11.353Z,5.69
2023-01-19T03:34:37.176Z,5.58
2023-01-19T03:38:01.906Z,5.50
2023-01-19T03:41:25.558Z,5.44
2023-01-19T03:44:50.692Z,5.40
2023-01-19T03:48:12.699Z,5.38
2023-01-19T03:51:39.006Z,5.24
2023-01-19T03:55:05.716Z,5.17
2023-01-19T03:58:33.031Z,5.09
2023-01-19T04:01:56.990Z,5.07
2023-01-19T04:05:19.269Z,5.13
2023-01-19T04:08:40.970Z,5.28
2023-01-19T04:12:04.118Z,5.06
2023-01-19T04:15:26.539Z,5.16
2023-01-19T04:18:48.600Z,5.13
2023-01-19T04:22:10.533Z,5.34
2023-01-19T04:25:34.363Z,5.24
2023-01-19T04:28:58.359Z,5.40
2023-01-19T04:32:22.336Z,5.43
2023-01-19T04:35:49.804Z,5.44
2023-01-19T04:39:12.820Z,5.41
2023-01-19T04:42:36.723Z,5.22
2023-01-19T04:46:03.147Z,5.17
2023-01-19T04:49:27.202Z,5.16
2023-01-19T04:52:49.175Z,4.93
2023-01-19T04:56:11.000Z,4.93
2023-01-19T04:59:32.968Z,5.09
2023-01-19T05:02:54.676Z,5.22
2023-01-19T05:06:16.437Z,5.28
2023-01-19T05:09:38.012Z,5.30
2023-01-19T05:13:02.244Z,5.40
2023-01-19T05:16:26.118Z,5.52
2023-01-19T05:19:48.869Z,5.50
2023-01-19T05:23:10.549Z,5.59
2023-01-19T05:26:32.140Z,5.50
2023-01-19T05:29:53.695Z,5.41
2023-01-19T05:33:15.379Z,5.44
2023-01-19T05:36:36.971Z,5.41
2023-01-19T05:40:01.066Z,5.28
2023-01-19T05:43:22.621Z,5.24
2023-01-19T05:46:44.321Z,5.23
2023-01-19T05:50:06.694Z,5.30
2023-01-19T05:53:28.851Z,5.30
2023-01-19T05:56:52.740Z,5.37
2023-01-19T06:00:17.668Z,5.47
2023-01-19T06:03:39.889Z,5.63
2023-01-19T06:07:02.361Z,5.59
2023-01-19T06:10:24.191Z,5.71
2023-01-19T06:13:48.170Z,5.71
2023-01-19T06:17:09.765Z,5.54
2023-01-19T06:20:33.991Z,5.43
2023-01-19T06:23:55.563Z,5.45
2023-01-19T06:27:17.449Z,5.47
2023-01-19T06:30:39.219Z,5.45
2023-01-19T06:34:01.104Z,5.38
2023-01-19T06:37:22.676Z,5.43
2023-01-19T06:40:45.063Z,5.44
2023-01-19T06:44:06.679Z,5.44
2023-01-19T06:47:28.308Z,5.55
2023-01-19T06:50:52.557Z,5.59
2023-01-19T06:54:14.400Z,5.72
2023-01-19T06:57:40.651Z,5.66
2023-01-19T07:01:08.594Z,5.66
2023-01-19T07:04:30.229Z,5.68
2023-01-19T07:07:56.444Z,5.85
2023-01-19T07:11:25.879Z,6.29
2023-01-19T07:14:56.881Z,6.72
2023-01-19T07:18:20.799Z,7.09
2023-01-19T07:21:42.408Z,7.26
2023-01-19T07:25:04.860Z,7.40
2023-01-19T07:28:28.954Z,7.12
2023-01-19T07:31:54.621Z,6.81
2023-01-19T07:35:18.836Z,6.61
2023-01-19T07:38:40.529Z,6.55
2023-01-19T07:42:02.348Z,6.37
2023-01-19T07:45:23.900Z,6.24
2023-01-19T07:48:47.886Z,6.33
2023-01-19T07:52:12.329Z,6.24
2023-01-19T07:55:34.231Z,6.11
2023-01-19T07:58:56.125Z,6.05
2023-01-19T08:02:18.190Z,6.10
2023-01-19T08:05:42.281Z,6.07
2023-01-19T08:09:05.782Z,6.17
2023-01-19T08:12:27.404Z,6.13
2023-01-19T08:15:50.683Z,6.21
2023-01-19T08:19:12.677Z,6.05
2023-01-19T08:22:34.285Z,6.09
2023-01-19T08:26:00.437Z,6.05
2023-01-19T08:29:24.453Z,6.02
2023-01-19T08:32:46.032Z,7.17
2023-01-19T08:36:08.220Z,7.64
2023-01-19T08:39:32.038Z,8.02
2023-01-19T08:42:53.651Z,8.10
2023-01-19T08:46:20.889Z,8.22
2023-01-19T08:49:45.084Z,8.16
2023-01-19T08:53:07.174Z,7.81
2023-01-19T08:56:28.843Z,7.54
2023-01-19T08:59:50.402Z,7.26
2023-01-19T09:03:14.801Z,7.02
2023-01-19T09:06:36.471Z,6.84
2023-01-19T09:09:58.113Z,6.71
2023-01-19T09:13:22.930Z,6.63
2023-01-19T09:16:44.796Z,6.55
2023-01-19T09:20:06.896Z,6.54
2023-01-19T09:23:30.887Z,6.48
2023-01-19T09:26:54.999Z,6.55
2023-01-19T09:30:19.568Z,6.48
2023-01-19T09:33:43.390Z,6.40
2023-01-19T09:37:07.794Z,6.68
2023-01-19T09:40:30.334Z,7.10
2023-01-19T09:43:57.840Z,7.33
2023-01-19T09:47:27.210Z,7.19
2023-01-19T09:50:49.690Z,7.03
2023-01-19T09:54:21.098Z,7.07
2023-01-19T09:57:42.692Z,6.92
2023-01-19T10:01:35.497Z,6.89
2023-01-19T10:05:36.303Z,6.21
2023-01-19T10:09:33.820Z,6.23
2023-01-19T10:13:01.835Z,6.00
2023-01-19T10:16:56.931Z,5.44
2023-01-19T10:20:52.887Z,6.00
2023-01-19T10:24:25.784Z,6.26
2023-01-19T10:27:49.956Z,6.17
2023-01-19T10:31:14.302Z,6.02
2023-01-19T10:34:36.270Z,6.13
2023-01-19T10:38:01.743Z,5.76
2023-01-19T10:41:32.050Z,5.66
2023-01-19T10:44:53.697Z,5.71
2023-01-19T10:48:17.733Z,5.35
2023-01-19T10:51:48.418Z,5.40
2023-01-19T10:55:26.042Z,5.65
2023-01-19T10:58:47.627Z,5.96
2023-01-19T11:02:16.241Z,5.92
2023-01-19T11:05:45.151Z,5.56
2023-01-19T11:09:11.992Z,5.01
2023-01-19T11:12:33.750Z,5.22
2023-01-19T11:16:04.416Z,5.51
2023-01-19T11:19:27.272Z,5.83
2023-01-19T11:23:04.367Z,5.41
2023-01-19T11:26:28.127Z,5.54
2023-01-19T11:30:12.699Z,5.44
2023-01-19T11:33:36.274Z,5.38
2023-01-19T11:37:00.845Z,5.51
2023-01-19T11:40:22.402Z,5.52
2023-01-19T11:43:49.190Z,5.50
2023-01-19T11:47:25.727Z,5.65
2023-01-19T11:50:49.420Z,5.73
2023-01-19T11:54:29.723Z,5.20
2023-01-19T11:57:58.099Z,5.45
2023-01-19T12:01:27.800Z,6.41
2023-01-19T12:04:50.850Z,5.95
2023-01-19T12:08:21.358Z,6.34
2023-01-19T12:12:11.142Z,6.30
2023-01-19T12:15:36.490Z,6.81
2023-01-19T12:19:13.298Z,6.59
2023-01-19T12:22:42.748Z,5.78
2023-01-19T12:26:20.393Z,5.83
2023-01-19T12:29:42.867Z,5.79
2023-01-19T12:33:26.542Z,5.86
2023-01-19T12:36:50.626Z,5.86
2023-01-19T12:40:28.355Z,5.61
2023-01-19T12:44:10.826Z,5.82
2023-01-19T12:47:36.530Z,5.34
2023-01-19T12:50:58.173Z,5.51
2023-01-19T12:54:32.978Z,5.10
2023-01-19T12:58:14.607Z,5.40
2023-01-19T13:01:41.530Z,5.56
2023-01-19T13:05:32.515Z,5.43
2023-01-19T13:08:59.746Z,5.40
2023-01-19T13:12:23.240Z,5.61
2023-01-19T13:15:45.406Z,6.27
2023-01-19T13:19:06.980Z,6.81
2023-01-19T13:23:00.702Z,7.12
2023-01-19T13:26:27.739Z,6.82
2023-01-19T13:29:49.381Z,5.73
2023-01-19T13:33:20.052Z,5.95
2023-01-19T13:36:49.778Z,5.66
2023-01-19T13:40:40.063Z,5.85
2023-01-19T13:44:09.185Z,5.88
2023-01-19T13:47:47.857Z,5.86
2023-01-19T13:51:20.133Z,5.82
2023-01-19T13:54:56.946Z,5.41
2023-01-19T13:58:22.716Z,5.26
2023-01-19T14:01:51.115Z,5.09
2023-01-19T14:05:21.256Z,5.30
2023-01-19T14:08:44.877Z,5.30
2023-01-19T14:12:17.416Z,5.50
2023-01-19T14:15:41.605Z,5.20
2023-01-19T14:19:05.252Z,5.41
2023-01-19T14:22:44.877Z,5.62
2023-01-19T14:26:27.281Z,5.52
2023-01-19T14:29:50.751Z,5.48
2023-01-19T14:33:45.553Z,5.43
2023-01-19T14:37:31.472Z,4.76
2023-01-19T14:40:55.478Z,4.99
2023-01-19T14:44:25.841Z,4.37
2023-01-19T14:47:57.453Z,4.47
2023-01-19T14:51:24.527Z,4.80
2023-01-19T14:54:49.867Z,5.10
2023-01-19T14:58:15.173Z,4.95
2023-01-19T15:01:37.197Z,5.28
2023-01-19T15:04:58.787Z,5.66
2023-01-19T15:08:27.665Z,5.92
2023-01-19T15:11:49.938Z,5.92
2023-01-19T15:15:22.711Z,5.75
2023-01-19T15:18:46.678Z,5.20
2023-01-19T15:22:13.762Z,4.69
2023-01-19T15:25:35.423Z,4.77
2023-01-19T15:28:59.258Z,4.97
2023-01-19T15:32:25.652Z,5.06
2023-01-19T15:35:53.618Z,5.09
2023-01-19T15:39:15.196Z,4.62
2023-01-19T15:42:36.863Z,4.99
2023-01-19T15:46:02.483Z,4.97
2023-01-19T15:49:24.283Z,5.04
2023-01-19T15:52:48.662Z,4.73
2023-01-19T15:56:18.073Z,4.59
2023-01-19T15:59:39.609Z,4.24
2023-01-19T16:03:02.570Z,4.56
2023-01-19T16:06:24.141Z,4.44
2023-01-19T16:09:45.717Z,4.65
2023-01-19T16:13:10.001Z,5.17
2023-01-19T16:16:31.648Z,5.51
2023-01-19T16:19:55.499Z,6.00
2023-01-19T16:23:17.685Z,6.31
2023-01-19T16:26:39.286Z,6.06
2023-01-19T16:30:04.817Z,6.30
2023-01-19T16:33:31.169Z,6.00
2023-01-19T16:36:53.018Z,5.92
2023-01-19T16:40:20.295Z,5.85
2023-01-19T16:43:44.584Z,4.71
2023-01-19T16:47:06.155Z,4.65
2023-01-19T16:50:27.731Z,4.71
2023-01-19T16:53:50.583Z,4.71
2023-01-19T16:57:14.995Z,4.73
2023-01-19T17:00:39.313Z,4.90
2023-01-19T17:04:00.885Z,4.71
2023-01-19T17:07:24.744Z,4.69
2023-01-19T17:10:48.125Z,4.76
2023-01-19T17:14:21.965Z,4.82
2023-01-19T17:17:43.649Z,4.44
2023-01-19T17:21:10.250Z,4.71
2023-01-19T17:24:32.685Z,4.61
2023-01-19T17:27:54.284Z,3.97
2023-01-19T17:31:24.403Z,4.18
2023-01-19T17:34:54.068Z,4.17
2023-01-19T17:38:21.041Z,4.07
2023-01-19T17:41:42.659Z,4.28
2023-01-19T17:45:04.425Z,4.49
2023-01-19T17:48:28.222Z,4.54
2023-01-19T17:51:54.433Z,4.36
2023-01-19T17:55:16.564Z,4.36
2023-01-19T17:58:38.552Z,4.49
2023-01-19T18:02:00.284Z,4.62
2023-01-19T18:05:26.406Z,4.68
2023-01-19T18:08:50.889Z,4.75
2023-01-19T18:12:12.542Z,4.80
2023-01-19T18:15:36.159Z,4.56
2023-01-19T18:18:58.041Z,4.41
2023-01-19T18:22:19.615Z,3.86
2023-01-19T18:25:43.249Z,3.79
2023-01-19T18:29:04.799Z,3.93
2023-01-19T18:32:27.347Z,4.22
2023-01-19T18:35:51.207Z,4.14
2023-01-19T18:39:12.954Z,4.08
2023-01-19T18:42:34.968Z,4.20
2023-01-19T18:45:59.229Z,3.93
2023-01-19T18:49:23.428Z,4.13
2023-01-19T18:52:53.902Z,4.03
2023-01-19T18:56:16.407Z,4.13
2023-01-19T18:59:38.126Z,4.40
2023-01-19T19:03:02.131Z,4.31
2023-01-19T19:06:27.181Z,4.44
2023-01-19T19:09:48.870Z,4.27
2023-01-19T19:13:15.987Z,4.47
2023-01-19T19:16:39.470Z,4.49
2023-01-19T19:20:01.689Z,4.45
2023-01-19T19:23:25.491Z,3.94
2023-01-19T19:26:47.711Z,3.76
2023-01-19T19:30:10.060Z,3.90
2023-01-19T19:33:32.367Z,4.03
2023-01-19T19:36:53.944Z,3.96
2023-01-19T19:40:19.647Z,3.79
2023-01-19T19:43:48.251Z,3.87
2023-01-19T19:47:12.095Z,4.08
2023-01-19T19:50:36.820Z,4.00
2023-01-19T19:54:01.602Z,4.08
2023-01-19T19:57:27.882Z,4.21
2023-01-19T20:00:49.617Z,3.56
2023-01-19T20:04:15.226Z,3.51
2023-01-19T20:07:46.336Z,3.76
2023-01-19T20:11:15.613Z,3.94
2023-01-19T20:14:37.288Z,4.22
2023-01-19T20:18:00.928Z,4.21
2023-01-19T20:21:36.839Z,4.18
2023-01-19T20:24:58.372Z,4.21
2023-01-19T20:28:25.049Z,4.41
2023-01-19T20:31:49.493Z,4.27
2023-01-19T20:35:15.431Z,4.47
2023-01-19T20:38:40.362Z,4.10
2023-01-19T20:42:02.807Z,4.59
2023-01-19T20:45:26.028Z,4.56
2023-01-19T20:48:54.657Z,4.59
2023-01-19T20:52:18.575Z,4.52
2023-01-19T20:55:40.264Z,4.00
2023-01-19T20:59:02.138Z,4.17
2023-01-19T21:02:28.409Z,4.69
2023-01-19T21:05:50.287Z,5.10
2023-01-19T21:09:14.363Z,5.30
2023-01-19T21:12:38.450Z,4.44
2023-01-19T21:16:04.989Z,4.76
2023-01-19T21:19:26.636Z,4.47
2023-01-19T21:22:48.271Z,4.76
2023-01-19T21:26:10.710Z,5.00
2023-01-19T21:29:32.454Z,5.07
2023-01-19T21:32:55.173Z,4.65
2023-01-19T21:36:18.983Z,4.41
2023-01-19T21:39:40.596Z,3.90
2023-01-19T21:43:04.752Z,3.75
2023-01-19T21:46:33.098Z,3.96
2023-01-19T21:49:54.898Z,4.13
2023-01-19T21:53:18.972Z,4.21
2023-01-19T21:56:46.110Z,4.56
2023-01-19T22:00:10.571Z,4.58
2023-01-19T22:03:35.228Z,4.33
2023-01-19T22:06:56.822Z,4.22
2023-01-19T22:10:21.640Z,3.97
2023-01-19T22:13:43.715Z,3.89
2023-01-19T22:17:05.417Z,4.11
2023-01-19T22:20:26.971Z,4.11
2023-01-19T22:23:50.218Z,4.22
2023-01-19T22:27:11.987Z,3.86
2023-01-19T22:30:33.927Z,3.80
2023-01-19T22:33:56.202Z,3.68
2023-01-19T22:37:17.775Z,3.87
2023-01-19T22:40:39.377Z,4.07
2023-01-19T22:44:08.596Z,4.07
2023-01-19T22:47:32.445Z,3.94
2023-01-19T22:50:57.353Z,4.21
2023-01-19T22:54:18.943Z,4.16
2023-01-19T22:57:40.534Z,3.94
2023-01-19T23:01:06.821Z,3.86
2023-01-19T23:04:28.520Z,4.14
2023-01-19T23:07:52.297Z,4.22
2023-01-19T23:11:16.900Z,4.16
2023-01-19T23:14:38.604Z,4.28
2023-01-19T23:18:02.582Z,3.79
2023-01-19T23:21:26.501Z,3.65
2023-01-19T23:24:48.112Z,3.70
2023-01-19T23:28:14.415Z,4.06
2023-01-19T23:31:38.076Z,3.99
2023-01-19T23:35:01.995Z,4.14
2023-01-19T23:38:23.665Z,3.99
2023-01-19T23:41:48.305Z,4.03
2023-01-19T23:45:13.184Z,4.04
2023-01-19T23:48:35.776Z,4.00
2023-01-19T23:51:59.799Z,3.93
2023-01-19T23:55:21.361Z,3.70
2023-01-19T23:58:43.851Z,3.87
